sensor_id;sensor_type;location;lat;lon;timestamp;pressure;altitude;pressure_sealevel;temperature;humidity
41254;BME280;26987;59.928;30.306;2023-02-23T00:01:23;102025.47;;;-12.44;87.31
41254;BME280;26987;59.928;30.306;2023-02-23T00:03:53;102011.78;;;-12.49;87.58
41254;BME280;26987;59.928;30.306;2023-02-23T00:06:23;102015.13;;;-12.44;87.03
41254;BME280;26987;59.928;30.306;2023-02-23T00:08:52;102021.16;;;-12.43;87.63
41254;BME280;26987;59.928;30.306;2023-02-23T00:11:22;102007.41;;;-12.45;86.97
41254;BME280;26987;59.928;30.306;2023-02-23T00:13:53;102015.13;;;-12.44;86.91
41254;BME280;26987;59.928;30.306;2023-02-23T00:16:24;102014.28;;;-12.44;87.34
41254;BME280;26987;59.928;30.306;2023-02-23T00:18:53;102011.72;;;-12.44;87.12
41254;BME280;26987;59.928;30.306;2023-02-23T00:21:24;101980.22;;;-12.68;86.81
41254;BME280;26987;59.928;30.306;2023-02-23T00:23:56;101972.56;;;-12.74;87.10
41254;BME280;26987;59.928;30.306;2023-02-23T00:26:28;102006.63;;;-12.49;87.43
41254;BME280;26987;59.928;30.306;2023-02-23T00:28:59;102018.56;;;-12.42;86.38
41254;BME280;26987;59.928;30.306;2023-02-23T00:31:28;102024.63;;;-12.44;86.51
41254;BME280;26987;59.928;30.306;2023-02-23T00:33:58;102032.47;;;-12.49;86.63
41254;BME280;26987;59.928;30.306;2023-02-23T00:36:29;102034.09;;;-12.43;85.99
41254;BME280;26987;59.928;30.306;2023-02-23T00:38:59;102023.78;;;-12.45;86.33
41254;BME280;26987;59.928;30.306;2023-02-23T00:41:28;102012.75;;;-12.55;86.30
41254;BME280;26987;59.928;30.306;2023-02-23T00:43:57;101971.69;;;-12.73;86.28
41254;BME280;26987;59.928;30.306;2023-02-23T00:46:28;102005.69;;;-12.46;86.34
41254;BME280;26987;59.928;30.306;2023-02-23T00:48:57;101994.63;;;-12.53;85.46
41254;BME280;26987;59.928;30.306;2023-02-23T00:51:26;102007.44;;;-12.48;85.63
41254;BME280;26987;59.928;30.306;2023-02-23T00:53:56;102004.84;;;-12.48;86.17
41254;BME280;26987;59.928;30.306;2023-02-23T00:56:25;101975.00;;;-12.65;86.14
41254;BME280;26987;59.928;30.306;2023-02-23T00:58:55;102000.56;;;-12.49;86.32
41254;BME280;26987;59.928;30.306;2023-02-23T01:01:26;101925.69;;;-13.05;85.73
41254;BME280;26987;59.928;30.306;2023-02-23T01:03:54;102002.34;;;-12.51;86.53
41254;BME280;26987;59.928;30.306;2023-02-23T01:06:23;101986.16;;;-12.63;86.02
41254;BME280;26987;59.928;30.306;2023-02-23T01:08:51;101995.41;;;-12.49;86.28
41254;BME280;26987;59.928;30.306;2023-02-23T01:11:23;101998.94;;;-12.54;85.94
41254;BME280;26987;59.928;30.306;2023-02-23T01:13:55;101943.63;;;-12.95;85.68
41254;BME280;26987;59.928;30.306;2023-02-23T01:16:26;101965.66;;;-12.74;86.08
41254;BME280;26987;59.928;30.306;2023-02-23T01:18:57;101991.22;;;-12.57;86.13
41254;BME280;26987;59.928;30.306;2023-02-23T01:21:27;101987.91;;;-12.63;85.64
41254;BME280;26987;59.928;30.306;2023-02-23T01:23:55;101990.38;;;-12.59;86.08
41254;BME280;26987;59.928;30.306;2023-02-23T01:26:25;101985.25;;;-12.62;85.30
41254;BME280;26987;59.928;30.306;2023-02-23T01:28:57;101986.94;;;-12.58;85.70
41254;BME280;26987;59.928;30.306;2023-02-23T01:31:27;101978.50;;;-12.69;85.58
41254;BME280;26987;59.928;30.306;2023-02-23T01:33:57;101993.06;;;-12.63;85.88
41254;BME280;26987;59.928;30.306;2023-02-23T01:36:26;101987.03;;;-12.64;85.75
41254;BME280;26987;59.928;30.306;2023-02-23T01:38:55;101993.91;;;-12.63;86.07
41254;BME280;26987;59.928;30.306;2023-02-23T01:41:26;101960.63;;;-12.82;86.12
41254;BME280;26987;59.928;30.306;2023-02-23T01:43:58;101983.56;;;-12.63;85.97
41254;BME280;26987;59.928;30.306;2023-02-23T01:46:30;101945.34;;;-12.96;85.95
41254;BME280;26987;59.928;30.306;2023-02-23T01:48:59;101934.19;;;-12.99;86.19
41254;BME280;26987;59.928;30.306;2023-02-23T01:51:30;101988.78;;;-12.66;86.77
41254;BME280;26987;59.928;30.306;2023-02-23T01:54:03;101962.28;;;-12.77;86.71
41254;BME280;26987;59.928;30.306;2023-02-23T01:56:36;101986.13;;;-12.61;86.28
41254;BME280;26987;59.928;30.306;2023-02-23T01:59:11;101987.84;;;-12.62;86.36
41254;BME280;26987;59.928;30.306;2023-02-23T02:01:41;101981.97;;;-12.70;86.37
41254;BME280;26987;59.928;30.306;2023-02-23T02:04:11;101988.63;;;-12.57;86.61
41254;BME280;26987;59.928;30.306;2023-02-23T02:06:44;101950.06;;;-12.69;86.17
41254;BME280;26987;59.928;30.306;2023-02-23T02:09:15;101985.00;;;-12.46;86.13
41254;BME280;26987;59.928;30.306;2023-02-23T02:11:44;101952.59;;;-12.66;86.20
41254;BME280;26987;59.928;30.306;2023-02-23T02:14:26;101989.78;;;-12.23;86.37
41254;BME280;26987;59.928;30.306;2023-02-23T02:17:05;101977.50;;;-12.11;85.85
41254;BME280;26987;59.928;30.306;2023-02-23T02:20:25;101975.25;;;-11.86;86.06
41254;BME280;26987;59.928;30.306;2023-02-23T02:23:25;101959.50;;;-11.73;84.73
41254;BME280;26987;59.928;30.306;2023-02-23T02:26:06;101954.38;;;-11.76;84.28
41254;BME280;26987;59.928;30.306;2023-02-23T02:29:06;101964.59;;;-11.70;84.22
41254;BME280;26987;59.928;30.306;2023-02-23T02:32:20;101973.22;;;-11.71;84.44
41254;BME280;26987;59.928;30.306;2023-02-23T02:35:14;101960.31;;;-11.73;84.08
41254;BME280;26987;59.928;30.306;2023-02-23T02:38:11;101958.34;;;-11.60;84.26
41254;BME280;26987;59.928;30.306;2023-02-23T02:40:46;101971.09;;;-11.50;84.39
41254;BME280;26987;59.928;30.306;2023-02-23T02:43:25;101965.72;;;-11.43;83.86
41254;BME280;26987;59.928;30.306;2023-02-23T02:46:01;101928.78;;;-11.49;83.87
41254;BME280;26987;59.928;30.306;2023-02-23T02:48:39;101959.09;;;-11.15;84.29
41254;BME280;26987;59.928;30.306;2023-02-23T02:51:13;101959.69;;;-11.04;83.77
41254;BME280;26987;59.928;30.306;2023-02-23T02:53:49;101953.50;;;-10.96;83.46
41254;BME280;26987;59.928;30.306;2023-02-23T02:56:22;101946.53;;;-10.96;83.09
41254;BME280;26987;59.928;30.306;2023-02-23T02:58:52;101939.66;;;-10.97;83.02
41254;BME280;26987;59.928;30.306;2023-02-23T03:01:21;101951.50;;;-10.86;83.23
41254;BME280;26987;59.928;30.306;2023-02-23T03:04:19;101957.34;;;-10.78;83.84
41254;BME280;26987;59.928;30.306;2023-02-23T03:07:09;101957.56;;;-10.86;83.57
41254;BME280;26987;59.928;30.306;2023-02-23T03:10:08;101961.03;;;-10.87;83.84
41254;BME280;26987;59.928;30.306;2023-02-23T03:13:04;101961.03;;;-10.87;84.39
41254;BME280;26987;59.928;30.306;2023-02-23T03:15:58;101957.56;;;-10.86;84.47
41254;BME280;26987;59.928;30.306;2023-02-23T03:18:55;101954.06;;;-10.85;84.34
41254;BME280;26987;59.928;30.306;2023-02-23T03:21:51;101954.06;;;-10.85;84.53
41254;BME280;26987;59.928;30.306;2023-02-23T03:24:39;101944.59;;;-10.86;84.63
41254;BME280;26987;59.928;30.306;2023-02-23T03:27:38;101944.25;;;-10.72;84.58
41254;BME280;26987;59.928;30.306;2023-02-23T03:30:30;101918.75;;;-10.89;84.68
41254;BME280;26987;59.928;30.306;2023-02-23T03:33:29;101940.66;;;-10.66;84.99
41254;BME280;26987;59.928;30.306;2023-02-23T03:36:18;101943.00;;;-10.57;85.30
41254;BME280;26987;59.928;30.306;2023-02-23T03:39:13;101931.75;;;-10.56;85.74
41254;BME280;26987;59.928;30.306;2023-02-23T03:42:04;101941.75;;;-10.43;85.90
41254;BME280;26987;59.928;30.306;2023-02-23T03:44:54;101937.00;;;-10.26;86.43
41254;BME280;26987;59.928;30.306;2023-02-23T03:47:41;101936.75;;;-10.18;86.33
41254;BME280;26987;59.928;30.306;2023-02-23T03:50:32;101938.06;;;-10.03;86.02
41254;BME280;26987;59.928;30.306;2023-02-23T03:53:23;101922.50;;;-10.03;86.02
41254;BME280;26987;59.928;30.306;2023-02-23T03:56:12;101936.91;;;-9.92;85.59
41254;BME280;26987;59.928;30.306;2023-02-23T03:59:01;101931.69;;;-9.91;85.38
41254;BME280;26987;59.928;30.306;2023-02-23T04:01:50;101929.00;;;-9.88;84.96
41254;BME280;26987;59.928;30.306;2023-02-23T04:04:37;101929.81;;;-9.85;85.18
41254;BME280;26987;59.928;30.306;2023-02-23T04:07:24;101927.97;;;-9.82;85.11
41254;BME280;26987;59.928;30.306;2023-02-23T04:10:11;101904.84;;;-9.90;84.10
41254;BME280;26987;59.928;30.306;2023-02-23T04:13:00;101937.47;;;-9.81;84.35
41254;BME280;26987;59.928;30.306;2023-02-23T04:15:45;101910.16;;;-9.94;84.47
41254;BME280;26987;59.928;30.306;2023-02-23T04:18:16;101916.88;;;-9.87;84.27
41254;BME280;26987;59.928;30.306;2023-02-23T04:20:47;101923.84;;;-9.89;84.23
41254;BME280;26987;59.928;30.306;2023-02-23T04:23:15;101925.44;;;-9.83;83.81
41254;BME280;26987;59.928;30.306;2023-02-23T04:25:43;101894.81;;;-10.02;83.59
41254;BME280;26987;59.928;30.306;2023-02-23T04:28:11;101922.72;;;-9.80;84.15
41254;BME280;26987;59.928;30.306;2023-02-23T04:30:38;101918.41;;;-9.80;83.84
41254;BME280;26987;59.928;30.306;2023-02-23T04:33:07;101920.91;;;-9.77;84.24
41254;BME280;26987;59.928;30.306;2023-02-23T04:35:36;101926.34;;;-9.86;84.37
41254;BME280;26987;59.928;30.306;2023-02-23T04:38:04;101915.31;;;-9.93;84.38
41254;BME280;26987;59.928;30.306;2023-02-23T04:40:33;101919.59;;;-9.92;84.82
41254;BME280;26987;59.928;30.306;2023-02-23T04:43:01;101918.81;;;-9.95;84.94
41254;BME280;26987;59.928;30.306;2023-02-23T04:45:29;101917.31;;;-10.03;84.96
41254;BME280;26987;59.928;30.306;2023-02-23T04:47:56;101920.56;;;-9.94;85.17
41254;BME280;26987;59.928;30.306;2023-02-23T04:50:24;101921.50;;;-9.97;84.50
41254;BME280;26987;59.928;30.306;2023-02-23T04:52:53;101924.25;;;-10.03;84.20
41254;BME280;26987;59.928;30.306;2023-02-23T04:55:24;101926.34;;;-10.16;84.58
41254;BME280;26987;59.928;30.306;2023-02-23T04:57:56;101921.19;;;-10.18;84.80
41254;BME280;26987;59.928;30.306;2023-02-23T05:00:25;101884.53;;;-10.37;85.05
41254;BME280;26987;59.928;30.306;2023-02-23T05:02:52;101901.50;;;-10.25;85.26
41254;BME280;26987;59.928;30.306;2023-02-23T05:05:20;101900.28;;;-10.13;85.22
41254;BME280;26987;59.928;30.306;2023-02-23T05:07:48;101901.81;;;-10.06;84.58
41254;BME280;26987;59.928;30.306;2023-02-23T05:10:18;101906.75;;;-9.96;84.41
41254;BME280;26987;59.928;30.306;2023-02-23T05:12:46;101908.31;;;-9.91;84.28
41254;BME280;26987;59.928;30.306;2023-02-23T05:15:14;101909.91;;;-9.85;84.24
41254;BME280;26987;59.928;30.306;2023-02-23T05:17:42;101908.88;;;-9.79;83.90
41254;BME280;26987;59.928;30.306;2023-02-23T05:20:11;101893.25;;;-9.78;84.38
41254;BME280;26987;59.928;30.306;2023-02-23T05:22:39;101874.63;;;-9.92;83.92
41254;BME280;26987;59.928;30.306;2023-02-23T05:25:08;101897.41;;;-9.72;83.88
41254;BME280;26987;59.928;30.306;2023-02-23T05:27:38;101888.56;;;-9.66;83.68
41254;BME280;26987;59.928;30.306;2023-02-23T05:30:07;101886.66;;;-9.59;83.58
41254;BME280;26987;59.928;30.306;2023-02-23T05:32:36;101877.03;;;-9.57;83.21
41254;BME280;26987;59.928;30.306;2023-02-23T05:35:04;101878.00;;;-9.60;83.14
41254;BME280;26987;59.928;30.306;2023-02-23T05:37:33;101874.50;;;-9.59;83.63
41254;BME280;26987;59.928;30.306;2023-02-23T05:40:01;101864.81;;;-9.54;83.12
41254;BME280;26987;59.928;30.306;2023-02-23T05:42:29;101863.69;;;-9.45;83.44
41254;BME280;26987;59.928;30.306;2023-02-23T05:44:58;101866.81;;;-9.35;83.52
41254;BME280;26987;59.928;30.306;2023-02-23T05:47:26;101860.19;;;-9.17;83.00
41254;BME280;26987;59.928;30.306;2023-02-23T05:49:54;101861.47;;;-9.03;82.64
41254;BME280;26987;59.928;30.306;2023-02-23T05:52:22;101862.97;;;-8.96;82.27
41254;BME280;26987;59.928;30.306;2023-02-23T05:54:49;101843.03;;;-8.95;82.14
41254;BME280;26987;59.928;30.306;2023-02-23T05:57:17;101841.81;;;-8.85;82.46
41254;BME280;26987;59.928;30.306;2023-02-23T05:59:45;101838.84;;;-8.74;81.83
41254;BME280;26987;59.928;30.306;2023-02-23T06:02:15;101812.94;;;-8.77;81.66
41254;BME280;26987;59.928;30.306;2023-02-23T06:04:42;101820.94;;;-8.58;81.64
41254;BME280;26987;59.928;30.306;2023-02-23T06:07:10;101818.88;;;-8.50;81.18
41254;BME280;26987;59.928;30.306;2023-02-23T06:09:38;101812.59;;;-8.44;80.51
41254;BME280;26987;59.928;30.306;2023-02-23T06:12:06;101811.50;;;-8.38;80.52
41254;BME280;26987;59.928;30.306;2023-02-23T06:14:34;101819.03;;;-8.30;80.77
41254;BME280;26987;59.928;30.306;2023-02-23T06:17:02;101816.09;;;-8.21;81.01
41254;BME280;26987;59.928;30.306;2023-02-23T06:19:32;101810.47;;;-8.10;80.81
41254;BME280;26987;59.928;30.306;2023-02-23T06:22:00;101824.28;;;-8.08;80.25
41254;BME280;26987;59.928;30.306;2023-02-23T06:24:28;101830.31;;;-8.06;79.93
41254;BME280;26987;59.928;30.306;2023-02-23T06:26:55;101818.06;;;-8.04;80.36
41254;BME280;26987;59.928;30.306;2023-02-23T06:29:23;101819.50;;;-7.97;80.21
41254;BME280;26987;59.928;30.306;2023-02-23T06:31:51;101818.75;;;-7.99;80.15
41254;BME280;26987;59.928;30.306;2023-02-23T06:34:19;101802.38;;;-8.02;79.78
41254;BME280;26987;59.928;30.306;2023-02-23T06:36:49;101814.81;;;-7.87;80.10
41254;BME280;26987;59.928;30.306;2023-02-23T06:39:16;101811.16;;;-7.82;79.52
41254;BME280;26987;59.928;30.306;2023-02-23T06:41:44;101807.53;;;-7.78;79.74
41254;BME280;26987;59.928;30.306;2023-02-23T06:44:12;101803.97;;;-7.76;79.62
41254;BME280;26987;59.928;30.306;2023-02-23T06:46:40;101805.31;;;-7.65;79.40
41254;BME280;26987;59.928;30.306;2023-02-23T06:49:09;101803.28;;;-7.58;78.90
41254;BME280;26987;59.928;30.306;2023-02-23T06:51:38;101798.81;;;-7.55;78.85
41254;BME280;26987;59.928;30.306;2023-02-23T06:54:07;101801.75;;;-7.42;79.05
41254;BME280;26987;59.928;30.306;2023-02-23T06:56:35;101793.63;;;-7.34;78.40
41254;BME280;26987;59.928;30.306;2023-02-23T06:59:03;101786.53;;;-7.30;78.75
41254;BME280;26987;59.928;30.306;2023-02-23T07:01:30;101803.13;;;-7.12;78.33
41254;BME280;26987;59.928;30.306;2023-02-23T07:03:58;101776.94;;;-7.09;78.27
41254;BME280;26987;59.928;30.306;2023-02-23T07:06:26;101806.41;;;-6.86;77.78
41254;BME280;26987;59.928;30.306;2023-02-23T07:08:56;101799.09;;;-6.78;77.35
41254;BME280;26987;59.928;30.306;2023-02-23T07:11:25;101799.72;;;-6.73;76.67
41254;BME280;26987;59.928;30.306;2023-02-23T07:13:56;101798.03;;;-6.74;76.85
41254;BME280;26987;59.928;30.306;2023-02-23T07:16:24;101773.91;;;-6.79;76.91
41254;BME280;26987;59.928;30.306;2023-02-23T07:18:53;101753.59;;;-6.91;76.96
41254;BME280;26987;59.928;30.306;2023-02-23T07:21:21;101784.00;;;-6.71;76.62
41254;BME280;26987;59.928;30.306;2023-02-23T07:23:49;101789.16;;;-6.69;76.83
41254;BME280;26987;59.928;30.306;2023-02-23T07:26:16;101781.53;;;-6.74;76.96
41254;BME280;26987;59.928;30.306;2023-02-23T07:28:46;101783.94;;;-6.69;76.44
41254;BME280;26987;59.928;30.306;2023-02-23T07:31:14;101782.81;;;-6.64;76.36
41254;BME280;26987;59.928;30.306;2023-02-23T07:33:42;101773.50;;;-6.69;75.26
41254;BME280;26987;59.928;30.306;2023-02-23T07:36:10;101772.38;;;-6.64;75.09
41254;BME280;26987;59.928;30.306;2023-02-23T07:38:38;101773.78;;;-6.56;75.53
41254;BME280;26987;59.928;30.306;2023-02-23T07:41:06;101751.28;;;-6.59;75.29
41254;BME280;26987;59.928;30.306;2023-02-23T07:43:34;101764.47;;;-6.43;75.53
41254;BME280;26987;59.928;30.306;2023-02-23T07:46:03;101756.03;;;-6.29;74.67
41254;BME280;26987;59.928;30.306;2023-02-23T07:48:31;101737.81;;;-6.30;74.67
41254;BME280;26987;59.928;30.306;2023-02-23T07:50:59;101748.38;;;-6.14;74.08
41254;BME280;26987;59.928;30.306;2023-02-23T07:53:27;101749.75;;;-5.88;73.55
41254;BME280;26987;59.928;30.306;2023-02-23T07:55:55;101750.97;;;-5.77;72.94
41254;BME280;26987;59.928;30.306;2023-02-23T07:58:23;101750.63;;;-5.70;71.98
41254;BME280;26987;59.928;30.306;2023-02-23T08:00:51;101741.91;;;-5.70;72.30
41254;BME280;26987;59.928;30.306;2023-02-23T08:03:21;101738.69;;;-5.75;72.30
41254;BME280;26987;59.928;30.306;2023-02-23T08:05:49;101738.22;;;-5.84;71.73
41254;BME280;26987;59.928;30.306;2023-02-23T08:08:16;101736.66;;;-5.88;72.62
41254;BME280;26987;59.928;30.306;2023-02-23T08:10:44;101732.19;;;-5.86;72.56
41254;BME280;26987;59.928;30.306;2023-02-23T08:13:13;101726.44;;;-5.92;72.61
41254;BME280;26987;59.928;30.306;2023-02-23T08:15:41;101672.56;;;-6.13;73.12
41254;BME280;26987;59.928;30.306;2023-02-23T08:18:09;101731.09;;;-5.62;72.77
41254;BME280;26987;59.928;30.306;2023-02-23T08:20:38;101719.41;;;-5.55;72.59
41254;BME280;26987;59.928;30.306;2023-02-23T08:23:06;101720.69;;;-5.28;71.93
41254;BME280;26987;59.928;30.306;2023-02-23T08:25:34;101729.34;;;-5.10;71.03
41254;BME280;26987;59.928;30.306;2023-02-23T08:28:02;101719.09;;;-4.97;70.90
41254;BME280;26987;59.928;30.306;2023-02-23T08:30:32;101731.75;;;-4.89;70.67
41254;BME280;26987;59.928;30.306;2023-02-23T08:33:00;101719.28;;;-4.84;70.90
41254;BME280;26987;59.928;30.306;2023-02-23T08:35:28;101735.00;;;-4.84;70.37
41254;BME280;26987;59.928;30.306;2023-02-23T08:37:57;101726.03;;;-4.80;70.54
41254;BME280;26987;59.928;30.306;2023-02-23T08:40:25;101719.91;;;-4.79;70.95
41254;BME280;26987;59.928;30.306;2023-02-23T08:42:53;101724.03;;;-4.75;70.26
41254;BME280;26987;59.928;30.306;2023-02-23T08:45:21;101712.06;;;-4.79;70.19
41254;BME280;26987;59.928;30.306;2023-02-23T08:47:49;101702.25;;;-4.75;71.18
41254;BME280;26987;59.928;30.306;2023-02-23T08:50:17;101707.56;;;-4.77;70.93
41254;BME280;26987;59.928;30.306;2023-02-23T08:52:45;101704.78;;;-4.74;70.92
41254;BME280;26987;59.928;30.306;2023-02-23T08:55:14;101700.91;;;-4.66;70.29
41254;BME280;26987;59.928;30.306;2023-02-23T08:57:43;101683.84;;;-4.74;70.47
41254;BME280;26987;59.928;30.306;2023-02-23T09:00:13;101691.28;;;-4.66;69.94
41254;BME280;26987;59.928;30.306;2023-02-23T09:02:42;101688.84;;;-4.69;69.36
41254;BME280;26987;59.928;30.306;2023-02-23T09:05:10;101692.06;;;-4.64;69.58
41254;BME280;26987;59.928;30.306;2023-02-23T09:07:39;101687.41;;;-4.59;69.45
41254;BME280;26987;59.928;30.306;2023-02-23T09:10:14;101696.69;;;-4.53;69.97
41254;BME280;26987;59.928;30.306;2023-02-23T09:12:42;101686.53;;;-4.59;69.35
41254;BME280;26987;59.928;30.306;2023-02-23T09:15:11;101644.09;;;-4.81;69.62
41254;BME280;26987;59.928;30.306;2023-02-23T09:17:38;101643.47;;;-4.86;68.82
41254;BME280;26987;59.928;30.306;2023-02-23T09:20:11;101663.16;;;-4.78;69.25
41254;BME280;26987;59.928;30.306;2023-02-23T09:22:39;101671.78;;;-4.76;69.58
41254;BME280;26987;59.928;30.306;2023-02-23T09:25:08;101672.78;;;-4.79;69.45
41254;BME280;26987;59.928;30.306;2023-02-23T09:27:39;101664.94;;;-4.79;68.94
41254;BME280;26987;59.928;30.306;2023-02-23T09:30:08;101665.84;;;-4.80;69.50
41254;BME280;26987;59.928;30.306;2023-02-23T09:32:36;101661.56;;;-4.81;70.00
41254;BME280;26987;59.928;30.306;2023-02-23T09:35:04;101653.78;;;-4.83;69.00
41254;BME280;26987;59.928;30.306;2023-02-23T09:37:32;101644.00;;;-4.79;69.23
41254;BME280;26987;59.928;30.306;2023-02-23T09:40:00;101651.78;;;-4.77;69.95
41254;BME280;26987;59.928;30.306;2023-02-23T09:42:39;101622.28;;;-4.81;69.29
41254;BME280;26987;59.928;30.306;2023-02-23T09:45:19;101632.44;;;-4.75;69.27
41254;BME280;26987;59.928;30.306;2023-02-23T09:47:58;101633.94;;;-4.71;70.36
41254;BME280;26987;59.928;30.306;2023-02-23T09:50:33;101619.69;;;-4.81;69.67
41254;BME280;26987;59.928;30.306;2023-02-23T09:53:06;101619.19;;;-4.72;69.12
41254;BME280;26987;59.928;30.306;2023-02-23T09:55:40;101619.25;;;-4.73;68.82
41254;BME280;26987;59.928;30.306;2023-02-23T09:58:18;101618.75;;;-4.64;69.43
41254;BME280;26987;59.928;30.306;2023-02-23T10:01:10;101614.13;;;-4.75;69.02
41254;BME280;26987;59.928;30.306;2023-02-23T10:03:50;101614.44;;;-4.81;68.16
41254;BME280;26987;59.928;30.306;2023-02-23T10:06:20;101617.47;;;-4.89;67.83
41254;BME280;26987;59.928;30.306;2023-02-23T10:08:56;101601.53;;;-5.00;67.92
41254;BME280;26987;59.928;30.306;2023-02-23T10:11:34;101615.59;;;-5.03;68.08
41254;BME280;26987;59.928;30.306;2023-02-23T10:14:14;101597.47;;;-5.06;68.03
41254;BME280;26987;59.928;30.306;2023-02-23T10:16:55;101601.56;;;-5.18;68.16
41254;BME280;26987;59.928;30.306;2023-02-23T10:19:31;101565.88;;;-5.51;68.48
41254;BME280;26987;59.928;30.306;2023-02-23T10:22:04;101583.88;;;-5.29;68.41
41254;BME280;26987;59.928;30.306;2023-02-23T10:24:36;101585.88;;;-5.34;67.53
41254;BME280;26987;59.928;30.306;2023-02-23T10:27:09;101558.34;;;-5.58;68.62
41254;BME280;26987;59.928;30.306;2023-02-23T10:29:42;101571.59;;;-5.45;69.36
41254;BME280;26987;59.928;30.306;2023-02-23T10:32:14;101576.13;;;-5.14;69.55
41254;BME280;26987;59.928;30.306;2023-02-23T10:34:45;101548.22;;;-5.48;67.81
41254;BME280;26987;59.928;30.306;2023-02-23T10:37:16;101537.19;;;-5.53;68.61
41254;BME280;26987;59.928;30.306;2023-02-23T10:39:44;101551.94;;;-5.52;68.60
41254;BME280;26987;59.928;30.306;2023-02-23T10:42:19;101543.00;;;-5.48;67.93
41254;BME280;26987;59.928;30.306;2023-02-23T10:44:49;101543.84;;;-5.47;68.56
41254;BME280;26987;59.928;30.306;2023-02-23T10:47:20;101524.28;;;-5.56;68.88
41254;BME280;26987;59.928;30.306;2023-02-23T10:49:51;101532.94;;;-5.55;68.11
41254;BME280;26987;59.928;30.306;2023-02-23T10:52:23;101523.28;;;-5.53;68.40
41254;BME280;26987;59.928;30.306;2023-02-23T10:54:54;101517.19;;;-5.54;68.58
41254;BME280;26987;59.928;30.306;2023-02-23T10:57:24;101515.50;;;-5.55;68.93
41254;BME280;26987;59.928;30.306;2023-02-23T11:00:25;101492.06;;;-5.40;68.36
41254;BME280;26987;59.928;30.306;2023-02-23T11:03:00;101504.13;;;-5.54;68.41
41254;BME280;26987;59.928;30.306;2023-02-23T11:05:36;101508.28;;;-5.50;68.85
41254;BME280;26987;59.928;30.306;2023-02-23T11:08:16;101511.78;;;-5.51;68.77
41254;BME280;26987;59.928;30.306;2023-02-23T11:11:00;101499.50;;;-5.49;69.10
41254;BME280;26987;59.928;30.306;2023-02-23T11:13:34;101491.97;;;-5.55;67.83
41254;BME280;26987;59.928;30.306;2023-02-23T11:16:06;101455.19;;;-5.84;67.24
41254;BME280;26987;59.928;30.306;2023-02-23T11:18:36;101482.00;;;-5.64;67.54
41254;BME280;26987;59.928;30.306;2023-02-23T11:21:12;101500.84;;;-5.58;67.40
41254;BME280;26987;59.928;30.306;2023-02-23T11:23:44;101488.50;;;-5.72;67.35
41254;BME280;26987;59.928;30.306;2023-02-23T11:26:28;101497.69;;;-5.64;68.87
41254;BME280;26987;59.928;30.306;2023-02-23T11:29:00;101491.13;;;-5.72;68.13
41254;BME280;26987;59.928;30.306;2023-02-23T11:31:34;101481.16;;;-5.81;67.98
41254;BME280;26987;59.928;30.306;2023-02-23T11:34:03;101485.69;;;-5.85;68.47
41254;BME280;26987;59.928;30.306;2023-02-23T11:36:34;101483.75;;;-5.81;68.53
41254;BME280;26987;59.928;30.306;2023-02-23T11:39:06;101463.00;;;-5.84;68.79
41254;BME280;26987;59.928;30.306;2023-02-23T11:41:35;101461.41;;;-5.87;68.36
41254;BME280;26987;59.928;30.306;2023-02-23T11:44:03;101460.41;;;-5.84;68.59
41254;BME280;26987;59.928;30.306;2023-02-23T11:46:35;101466.75;;;-5.72;68.37
41254;BME280;26987;59.928;30.306;2023-02-23T11:49:06;101464.03;;;-5.71;67.99
41254;BME280;26987;59.928;30.306;2023-02-23T11:51:36;101414.22;;;-5.84;68.40
41254;BME280;26987;59.928;30.306;2023-02-23T11:54:06;101428.63;;;-5.76;67.53
41254;BME280;26987;59.928;30.306;2023-02-23T11:56:47;101425.47;;;-5.65;68.20
41254;BME280;26987;59.928;30.306;2023-02-23T11:59:18;101440.63;;;-5.56;67.72
41254;BME280;26987;59.928;30.306;2023-02-23T12:01:53;101403.28;;;-5.74;68.23
41254;BME280;26987;59.928;30.306;2023-02-23T12:04:27;101419.91;;;-5.59;67.54
41254;BME280;26987;59.928;30.306;2023-02-23T12:07:21;101422.84;;;-5.49;68.38
41254;BME280;26987;59.928;30.306;2023-02-23T12:09:58;101413.56;;;-5.55;68.08
41254;BME280;26987;59.928;30.306;2023-02-23T12:12:29;101404.03;;;-5.56;67.90
41254;BME280;26987;59.928;30.306;2023-02-23T12:15:04;101404.22;;;-5.59;68.96
41254;BME280;26987;59.928;30.306;2023-02-23T12:17:41;101397.66;;;-5.66;69.18
41254;BME280;26987;59.928;30.306;2023-02-23T12:20:16;101390.88;;;-5.71;68.72
41254;BME280;26987;59.928;30.306;2023-02-23T12:22:48;101385.66;;;-5.71;69.56
41254;BME280;26987;59.928;30.306;2023-02-23T12:25:22;101395.78;;;-5.64;68.97
41254;BME280;26987;59.928;30.306;2023-02-23T12:27:56;101391.06;;;-5.58;69.57
41254;BME280;26987;59.928;30.306;2023-02-23T12:30:30;101372.50;;;-5.53;69.76
41254;BME280;26987;59.928;30.306;2023-02-23T12:33:09;101372.16;;;-5.47;69.84
41254;BME280;26987;59.928;30.306;2023-02-23T12:35:44;101371.22;;;-5.46;69.80
41254;BME280;26987;59.928;30.306;2023-02-23T12:38:20;101369.88;;;-5.37;70.05
41254;BME280;26987;59.928;30.306;2023-02-23T12:41:02;101354.19;;;-5.37;69.54
41254;BME280;26987;59.928;30.306;2023-02-23T12:43:36;101353.66;;;-5.44;70.02
41254;BME280;26987;59.928;30.306;2023-02-23T12:46:09;101334.47;;;-5.42;70.29
41254;BME280;26987;59.928;30.306;2023-02-23T12:48:47;101321.94;;;-5.37;69.75
41254;BME280;26987;59.928;30.306;2023-02-23T12:51:23;101332.66;;;-5.26;70.15
41254;BME280;26987;59.928;30.306;2023-02-23T12:53:53;101324.47;;;-5.20;70.25
41254;BME280;26987;59.928;30.306;2023-02-23T12:56:39;101315.16;;;-5.09;70.99
41254;BME280;26987;59.928;30.306;2023-02-23T13:02:15;101309.16;;;-5.11;70.11
41254;BME280;26987;59.928;30.306;2023-02-23T13:04:59;101312.72;;;-5.12;70.71
41254;BME280;26987;59.928;30.306;2023-02-23T13:07:36;101297.63;;;-5.23;71.01
41254;BME280;26987;59.928;30.306;2023-02-23T13:10:15;101283.88;;;-5.27;71.87
41254;BME280;26987;59.928;30.306;2023-02-23T13:12:53;101287.44;;;-5.28;71.68